createdAt,value
2022-09-21T00:00:04.774Z,9.8
2022-09-21T00:01:21.054Z,10.1
2022-09-21T00:02:37.346Z,8.5
2022-09-21T00:03:53.639Z,8.4
2022-09-21T00:05:09.951Z,8.5
2022-09-21T00:06:26.245Z,8.6
2022-09-21T00:07:42.538Z,9.2
2022-09-21T00:08:58.817Z,8.5
2022-09-21T00:10:15.123Z,9.5
2022-09-21T00:11:31.418Z,7.7
2022-09-21T00:12:47.715Z,8.3
2022-09-21T00:14:03.013Z,9.2
2022-09-21T00:15:19.316Z,8.1
2022-09-21T00:16:35.613Z,9.9
2022-09-21T00:17:51.893Z,11.1
2022-09-21T00:19:08.203Z,9.4
2022-09-21T00:20:24.488Z,9.5
2022-09-21T00:21:40.785Z,8
2022-09-21T00:22:57.074Z,8.5
2022-09-21T00:24:13.376Z,8
2022-09-21T00:25:29.674Z,7.8
2022-09-21T00:26:45.970Z,8.7
2022-09-21T00:28:02.247Z,11.4
2022-09-21T00:29:18.556Z,8.9
2022-09-21T00:30:33.855Z,7.4
2022-09-21T00:31:50.150Z,7.5
2022-09-21T00:33:06.451Z,8.1
2022-09-21T00:34:22.738Z,8.6
2022-09-21T00:35:39.028Z,9
2022-09-21T00:36:55.326Z,9
2022-09-21T00:38:11.632Z,7.2
2022-09-21T00:39:27.919Z,7.6
2022-09-21T00:40:44.216Z,8.5
2022-09-21T00:42:00.511Z,6.9
2022-09-21T00:43:16.806Z,6.9
2022-09-21T00:44:33.103Z,7.3
2022-09-21T00:45:49.391Z,7.5
2022-09-21T00:47:04.701Z,7.5
2022-09-21T00:48:20.991Z,7.7
2022-09-21T00:49:37.285Z,8.2
2022-09-21T00:50:53.575Z,8.3
2022-09-21T00:52:09.876Z,8.6
2022-09-21T00:53:26.175Z,7.6
2022-09-21T00:54:42.460Z,7.5
2022-09-21T00:55:58.764Z,7.4
2022-09-21T00:57:15.061Z,8
2022-09-21T00:58:31.342Z,7.5
2022-09-21T00:59:47.640Z,7.2
2022-09-21T01:01:03.943Z,6.9
2022-09-21T01:02:20.233Z,8.9
2022-09-21T01:03:35.536Z,7.2
2022-09-21T01:04:51.842Z,6.9
2022-09-21T01:06:08.140Z,8.6
2022-09-21T01:07:24.415Z,7.6
2022-09-21T01:08:40.716Z,7.8
2022-09-21T01:09:57.003Z,8.5
2022-09-21T01:11:13.317Z,7.3
2022-09-21T01:12:29.605Z,8.7
2022-09-21T01:13:45.886Z,6.7
2022-09-21T01:15:02.189Z,7.8
2022-09-21T01:16:18.481Z,7.4
2022-09-21T01:17:34.769Z,7.1
2022-09-21T01:18:51.074Z,7.1
2022-09-21T01:20:06.372Z,7.4
2022-09-21T01:21:22.671Z,7
2022-09-21T01:22:38.974Z,7.4
2022-09-21T01:23:55.259Z,9.8
2022-09-21T01:25:11.566Z,9.9
2022-09-21T01:26:27.844Z,8.4
2022-09-21T01:27:44.140Z,8.2
2022-09-21T01:29:00.446Z,6.6
2022-09-21T01:30:16.728Z,7.7
2022-09-21T01:31:33.030Z,9.7
2022-09-21T01:32:49.317Z,9.6
2022-09-21T01:34:05.619Z,8.4
2022-09-21T01:35:21.912Z,8.2
2022-09-21T01:36:37.217Z,8.4
2022-09-21T01:37:53.507Z,7.7
2022-09-21T01:39:09.810Z,6.5
2022-09-21T01:40:26.103Z,8.2
2022-09-21T01:41:42.391Z,8
2022-09-21T01:42:58.686Z,7.6
2022-09-21T01:44:14.986Z,9.9
2022-09-21T01:45:31.285Z,8.6
2022-09-21T01:46:47.569Z,7.3
2022-09-21T01:48:03.876Z,7.2
2022-09-21T01:49:20.176Z,8.8
2022-09-21T01:50:36.466Z,7.5
2022-09-21T01:51:52.744Z,8.7
2022-09-21T01:53:08.065Z,6
2022-09-21T01:54:24.348Z,9.8
2022-09-21T01:55:40.661Z,6.8
2022-09-21T01:56:56.947Z,9.3
2022-09-21T01:58:13.239Z,8.2
2022-09-21T01:59:29.540Z,7.7
2022-09-21T02:00:45.833Z,6.9
2022-09-21T02:02:02.132Z,7.4
2022-09-21T02:03:18.411Z,7.6
2022-09-21T02:04:34.702Z,6.7
2022-09-21T02:05:51.008Z,8.4
2022-09-21T02:08:23.585Z,8.3
2022-09-21T02:09:38.898Z,8.1
2022-09-21T02:10:55.207Z,8.5
2022-09-21T02:12:11.502Z,7.2
2022-09-21T02:13:27.789Z,7.7
2022-09-21T02:14:44.074Z,6.7
2022-09-21T02:16:00.383Z,8.2
2022-09-21T02:17:16.678Z,7.2
2022-09-21T02:18:32.959Z,8.3
2022-09-21T02:19:49.248Z,7.3
2022-09-21T02:21:05.552Z,6.9
2022-09-21T02:22:21.853Z,9.1
2022-09-21T02:23:38.136Z,7.2
2022-09-21T02:24:54.443Z,6.9
2022-09-21T02:26:09.000Z,7.4
2022-09-21T02:27:26.048Z,7.8
2022-09-21T02:28:42.340Z,10.3
2022-09-21T02:29:58.635Z,7.1
2022-09-21T02:31:14.932Z,7.5
2022-09-21T02:32:31.224Z,7.6
2022-09-21T02:33:47.509Z,7.6
2022-09-21T02:35:03.805Z,9.2
2022-09-21T02:36:20.106Z,7.1
2022-09-21T02:37:36.397Z,7.8
2022-09-21T02:38:52.683Z,8.1
2022-09-21T02:40:08.988Z,8.2
2022-09-21T02:41:25.280Z,9.4
2022-09-21T02:42:40.582Z,7.9
2022-09-21T02:43:56.891Z,8.3
2022-09-21T02:45:13.175Z,6.9
2022-09-21T02:46:29.474Z,7.2
2022-09-21T02:47:45.771Z,7.8
2022-09-21T02:49:01.086Z,10.9
2022-09-21T02:50:17.380Z,8.4
2022-09-21T02:51:33.665Z,7
2022-09-21T02:52:49.955Z,7.1
2022-09-21T02:54:06.266Z,8.1
2022-09-21T02:55:22.560Z,7.1
2022-09-21T02:56:38.835Z,8.8
2022-09-21T02:57:55.133Z,10.4
2022-09-21T02:59:11.438Z,10.9
2022-09-21T03:00:27.734Z,10.4
2022-09-21T03:01:44.031Z,9
2022-09-21T03:03:00.320Z,8.4
2022-09-21T03:04:16.601Z,8.5
2022-09-21T03:05:31.912Z,8.3
2022-09-21T03:06:48.206Z,9.4
2022-09-21T03:08:04.512Z,7.9
2022-09-21T03:09:20.812Z,9.8
2022-09-21T03:10:37.106Z,8.2
2022-09-21T03:11:53.387Z,8.6
2022-09-21T03:13:09.687Z,10
2022-09-21T03:14:25.981Z,11.7
2022-09-21T03:15:42.285Z,14.6
2022-09-21T03:16:58.574Z,8.6
2022-09-21T03:18:14.858Z,10.9
2022-09-21T03:19:31.164Z,10.3
2022-09-21T03:20:47.451Z,9.2
2022-09-21T03:22:02.771Z,10
2022-09-21T03:24:35.345Z,11
2022-09-21T03:25:51.636Z,9.9
2022-09-21T03:27:07.934Z,12
2022-09-21T03:28:24.232Z,11.4
2022-09-21T03:29:40.537Z,11.2
2022-09-21T03:30:56.831Z,9.9
2022-09-21T03:32:13.124Z,11.6
2022-09-21T03:33:29.406Z,11.6
2022-09-21T03:34:45.709Z,12.5
2022-09-21T03:36:01.989Z,13.6
2022-09-21T03:37:18.294Z,9.7
2022-09-21T03:38:33.602Z,10.3
2022-09-21T03:39:49.888Z,11.5
2022-09-21T03:41:06.201Z,10.7
2022-09-21T03:42:22.489Z,12.1
2022-09-21T03:43:38.773Z,10.1
2022-09-21T03:44:55.069Z,12
2022-09-21T03:46:11.376Z,9.6
2022-09-21T03:47:27.665Z,9.1
2022-09-21T03:48:43.949Z,12.7
2022-09-21T03:50:00.247Z,11.8
2022-09-21T03:51:16.000Z,12.8
2022-09-21T03:52:32.845Z,12.4
2022-09-21T03:53:49.143Z,11.3
2022-09-21T03:55:04.439Z,9.7
2022-09-21T03:56:20.736Z,11.4
2022-09-21T03:57:37.039Z,11.3
2022-09-21T03:58:53.332Z,10.4
2022-09-21T04:00:09.619Z,12.7
2022-09-21T04:01:25.908Z,11.1
2022-09-21T04:02:42.203Z,10.8
2022-09-21T04:03:58.502Z,11.1
2022-09-21T04:05:14.796Z,11
2022-09-21T04:06:31.097Z,10.4
2022-09-21T04:07:47.393Z,11.8
2022-09-21T04:09:03.681Z,13.3
2022-09-21T04:10:19.983Z,11.9
2022-09-21T04:11:35.291Z,10.4
2022-09-21T04:12:51.574Z,10.9
2022-09-21T04:14:07.870Z,13.1
2022-09-21T04:15:24.176Z,11.9
2022-09-21T04:16:40.467Z,11.2
2022-09-21T04:17:56.759Z,12.5
2022-09-21T04:19:13.056Z,13.3
2022-09-21T04:20:29.355Z,13.6
2022-09-21T04:21:45.576Z,11
2022-09-21T04:23:01.870Z,11.7
2022-09-21T04:24:18.132Z,12.2
2022-09-21T04:25:34.376Z,12
2022-09-21T04:26:50.663Z,10.3
2022-09-21T04:28:05.938Z,11.4
2022-09-21T04:29:22.167Z,11.4
2022-09-21T04:30:38.419Z,11.2
2022-09-21T04:31:54.662Z,9.5
2022-09-21T04:33:10.898Z,10.3
2022-09-21T04:34:27.138Z,9
2022-09-21T04:35:43.390Z,12.1
2022-09-21T04:36:59.633Z,10.8
2022-09-21T04:38:15.864Z,11.6
2022-09-21T04:39:32.114Z,11
2022-09-21T04:40:48.352Z,12
2022-09-21T04:42:04.578Z,10.1
2022-09-21T04:43:20.833Z,10.1
2022-09-21T04:44:36.092Z,10.8
2022-09-21T04:45:52.331Z,12.7
2022-09-21T04:47:08.570Z,11
2022-09-21T04:48:24.802Z,12
2022-09-21T04:49:41.047Z,10
2022-09-21T04:50:57.284Z,10
2022-09-21T04:52:13.535Z,12.4
2022-09-21T04:53:29.765Z,9.3
2022-09-21T04:54:46.009Z,11
2022-09-21T04:56:02.236Z,10.3
2022-09-21T04:57:18.497Z,12.4
2022-09-21T04:58:34.725Z,10.9
2022-09-21T04:59:50.974Z,10.4
2022-09-21T05:01:06.228Z,11.3
2022-09-21T05:03:38.702Z,16.8
2022-09-21T05:04:54.937Z,12.2
2022-09-21T05:06:11.184Z,12.6
2022-09-21T05:07:27.416Z,12.6
2022-09-21T05:08:43.664Z,14.6
2022-09-21T05:09:59.917Z,13.9
2022-09-21T05:11:16.144Z,13
2022-09-21T05:12:32.387Z,13.3
2022-09-21T05:13:48.616Z,13.3
2022-09-21T05:15:04.876Z,13.7
2022-09-21T05:16:21.103Z,13.5
2022-09-21T05:17:36.372Z,12.4
2022-09-21T05:18:52.608Z,10.9
2022-09-21T05:20:08.000Z,12.1
2022-09-21T05:21:25.076Z,14
2022-09-21T05:22:41.322Z,11.5
2022-09-21T05:23:57.556Z,11.1
2022-09-21T05:25:13.798Z,12.6
2022-09-21T05:26:30.040Z,12.7
2022-09-21T05:27:46.280Z,10.9
2022-09-21T05:29:02.521Z,12.4
2022-09-21T05:30:18.758Z,12.2
2022-09-21T05:31:34.999Z,13.9
2022-09-21T05:32:51.248Z,11.9
2022-09-21T05:34:06.513Z,10.5
2022-09-21T05:35:22.744Z,9.4
2022-09-21T05:36:38.984Z,10
2022-09-21T05:37:55.224Z,10.5
2022-09-21T05:39:11.474Z,10.6
2022-09-21T05:40:27.715Z,12.1
2022-09-21T05:41:43.955Z,10.7
2022-09-21T05:43:00.195Z,10.5
2022-09-21T05:44:16.426Z,10.7
2022-09-21T05:45:32.677Z,11.6
2022-09-21T05:46:48.900Z,10.8
2022-09-21T05:48:05.142Z,10.4
2022-09-21T05:49:21.388Z,10.9
2022-09-21T05:50:36.641Z,11.3
2022-09-21T05:51:52.879Z,9.7
2022-09-21T05:53:09.116Z,10.8
2022-09-21T05:54:25.356Z,10
2022-09-21T05:55:41.600Z,10
2022-09-21T05:56:57.841Z,11.3
2022-09-21T05:58:14.093Z,11.3
2022-09-21T05:59:30.333Z,12.6
2022-09-21T06:00:46.559Z,11
2022-09-21T06:02:02.815Z,10.1
2022-09-21T06:03:19.055Z,12.6
2022-09-21T06:04:35.288Z,9.4
2022-09-21T06:05:51.520Z,11.9
2022-09-21T06:07:06.784Z,10.8
2022-09-21T06:08:23.030Z,11.3
2022-09-21T06:09:39.255Z,10.6
2022-09-21T06:10:55.503Z,10.9
2022-09-21T06:12:11.749Z,11.2
2022-09-21T06:13:27.988Z,9.6
2022-09-21T06:14:44.227Z,8.7
2022-09-21T06:16:00.456Z,10.9
2022-09-21T06:17:16.707Z,11.6
2022-09-21T06:18:32.951Z,12.3
2022-09-21T06:19:49.188Z,10.2
2022-09-21T06:21:05.416Z,11.1
2022-09-21T06:22:21.664Z,9.9
2022-09-21T06:23:36.926Z,11
2022-09-21T06:24:53.155Z,10.8
2022-09-21T06:26:09.410Z,10.5
2022-09-21T06:27:25.638Z,11.8
2022-09-21T06:28:41.874Z,12.3
2022-09-21T06:29:58.121Z,10.2
2022-09-21T06:31:14.373Z,9.4
2022-09-21T06:32:30.602Z,10.4
2022-09-21T06:33:46.841Z,9.4
2022-09-21T06:35:03.093Z,10.3
2022-09-21T06:36:19.321Z,10.4
2022-09-21T06:37:35.575Z,9.9
2022-09-21T06:38:51.814Z,10.5
2022-09-21T06:40:07.057Z,11
2022-09-21T06:41:23.298Z,10.1
2022-09-21T06:42:39.533Z,10.6
2022-09-21T06:43:55.787Z,9.2
2022-09-21T06:45:12.019Z,12.8
2022-09-21T06:46:28.255Z,9
2022-09-21T06:47:44.501Z,9.2
2022-09-21T06:49:00.743Z,9.9
2022-09-21T06:50:16.987Z,12.9
2022-09-21T06:51:33.225Z,10.7
2022-09-21T06:52:49.460Z,11.8
2022-09-21T06:54:05.697Z,12.5
2022-09-21T06:55:21.933Z,10.9
2022-09-21T06:56:37.207Z,9.9
2022-09-21T06:57:53.443Z,12.5
2022-09-21T06:59:09.675Z,10.2
2022-09-21T07:00:25.911Z,10.9
2022-09-21T07:01:42.152Z,11.6
2022-09-21T07:02:58.390Z,9.7
2022-09-21T07:04:13.663Z,10.9
2022-09-21T07:05:29.906Z,11.5
2022-09-21T07:06:46.148Z,11.4
2022-09-21T07:08:02.382Z,11.4
2022-09-21T07:09:18.628Z,12.1
2022-09-21T07:10:34.858Z,10.4
2022-09-21T07:11:51.107Z,9.3
2022-09-21T07:13:07.351Z,10.1
2022-09-21T07:14:23.592Z,10.8
2022-09-21T07:15:39.822Z,11.1
2022-09-21T07:16:56.066Z,12.4
2022-09-21T07:18:12.306Z,11.5
2022-09-21T07:19:28.540Z,9.7
2022-09-21T07:20:43.808Z,11.1
2022-09-21T07:22:00.049Z,10
2022-09-21T07:23:16.269Z,9
2022-09-21T07:24:32.518Z,9.5
2022-09-21T07:25:48.763Z,11.9
2022-09-21T07:27:04.995Z,10.8
2022-09-21T07:28:21.240Z,12
2022-09-21T07:29:37.475Z,10.6
2022-09-21T07:30:53.721Z,12.1
2022-09-21T07:32:09.968Z,10.1
2022-09-21T07:33:26.190Z,11
2022-09-21T07:34:42.443Z,10.2
2022-09-21T07:35:58.688Z,9.5
2022-09-21T07:37:13.931Z,10.6
2022-09-21T07:38:30.172Z,10.5
2022-09-21T07:39:46.409Z,10.5
2022-09-21T07:41:02.646Z,8.4
2022-09-21T07:42:18.891Z,10.2
2022-09-21T07:43:35.145Z,10.5
2022-09-21T07:44:51.373Z,10.5
2022-09-21T07:46:07.627Z,10.2
2022-09-21T07:47:23.860Z,11.4
2022-09-21T07:48:40.088Z,9.1
2022-09-21T07:49:56.341Z,10.6
2022-09-21T07:51:12.572Z,10.7
2022-09-21T07:52:28.805Z,9.5
2022-09-21T07:53:44.075Z,12.2
2022-09-21T07:55:00.319Z,9.8
2022-09-21T07:56:16.554Z,9.5
2022-09-21T07:57:32.798Z,10
2022-09-21T07:58:49.032Z,9
2022-09-21T08:00:05.271Z,9.8
2022-09-21T08:01:21.523Z,10.8
2022-09-21T08:02:37.751Z,9.1
2022-09-21T08:03:53.986Z,10.8
2022-09-21T08:05:10.237Z,11
2022-09-21T08:06:26.481Z,9.1
2022-09-21T08:07:42.705Z,9.4
2022-09-21T08:08:58.952Z,8.6
2022-09-21T08:10:14.208Z,8.8
2022-09-21T08:11:30.451Z,8.8
2022-09-21T08:12:46.688Z,10.1
2022-09-21T08:14:02.921Z,8.5
2022-09-21T08:15:19.173Z,9.2
2022-09-21T08:16:35.401Z,9.5
2022-09-21T08:17:51.652Z,8.7
2022-09-21T08:19:07.897Z,9.3
2022-09-21T08:20:24.138Z,8.3
2022-09-21T08:21:40.361Z,8.9
2022-09-21T08:22:56.607Z,10.5
2022-09-21T08:24:12.858Z,8.4
2022-09-21T08:25:29.091Z,7.1
2022-09-21T08:26:44.336Z,10.9
2022-09-21T08:28:00.596Z,8.3
2022-09-21T08:29:16.819Z,9.1
2022-09-21T08:30:33.064Z,9.7
2022-09-21T08:31:49.312Z,12
2022-09-21T08:33:05.548Z,8.8
2022-09-21T08:34:21.780Z,10.5
2022-09-21T08:35:38.022Z,8.5
2022-09-21T08:36:54.264Z,8.7
2022-09-21T08:38:10.504Z,8.4
2022-09-21T08:39:26.742Z,9.3
2022-09-21T08:40:42.978Z,10.6
2022-09-21T08:41:59.234Z,10.8
2022-09-21T08:43:14.488Z,8.3
2022-09-21T08:44:30.721Z,8.3
2022-09-21T08:45:46.963Z,9
2022-09-21T08:47:03.201Z,9.9
2022-09-21T08:48:19.447Z,8.9
2022-09-21T08:49:35.676Z,9.7
2022-09-21T08:50:51.923Z,10.2
2022-09-21T08:52:08.159Z,9.7
2022-09-21T08:53:24.397Z,7.9
2022-09-21T08:54:40.655Z,8.7
2022-09-21T08:55:56.896Z,10.6
2022-09-21T08:57:13.123Z,12.3
2022-09-21T08:58:29.366Z,10.2
2022-09-21T08:59:44.614Z,11.1
2022-09-21T09:01:00.854Z,9.3
2022-09-21T09:02:17.099Z,10.2
2022-09-21T09:03:33.342Z,10.2
2022-09-21T09:04:49.588Z,9.7
2022-09-21T09:06:05.813Z,10.5
2022-09-21T09:07:22.060Z,10.6
2022-09-21T09:08:38.291Z,10.4
2022-09-21T09:09:54.544Z,9.3
2022-09-21T09:11:10.779Z,10.4
2022-09-21T09:12:27.022Z,10.3
2022-09-21T09:13:43.260Z,10.5
2022-09-21T09:14:59.491Z,9.7
2022-09-21T09:16:14.751Z,10.9
2022-09-21T09:17:31.002Z,9.1
2022-09-21T09:18:47.227Z,13.1
2022-09-21T09:20:03.486Z,11
2022-09-21T09:21:19.713Z,10.9
2022-09-21T09:22:35.950Z,9.8
2022-09-21T09:23:52.204Z,11.3
2022-09-21T09:25:08.445Z,10.1
2022-09-21T09:26:24.672Z,10.6
2022-09-21T09:27:40.915Z,10
2022-09-21T09:28:57.167Z,10.1
2022-09-21T09:30:13.407Z,11.5
2022-09-21T09:31:29.642Z,9.5
2022-09-21T09:32:44.894Z,10.2
2022-09-21T09:34:01.130Z,10.7
2022-09-21T09:35:17.383Z,11.7
2022-09-21T09:36:33.611Z,8.6
2022-09-21T09:37:49.843Z,8.9
2022-09-21T09:39:06.101Z,8.4
2022-09-21T09:40:22.337Z,7.9
2022-09-21T09:41:38.581Z,9.7
2022-09-21T09:42:54.825Z,10.9
2022-09-21T09:44:11.053Z,9.8
2022-09-21T09:45:27.287Z,7.7
2022-09-21T09:46:43.531Z,9.7
2022-09-21T09:47:59.783Z,9.1
2022-09-21T09:49:15.032Z,9.6
2022-09-21T09:50:31.270Z,9.7
2022-09-21T09:51:47.506Z,9.2
2022-09-21T09:53:03.740Z,8.7
2022-09-21T09:54:19.986Z,9
2022-09-21T09:55:36.237Z,10
2022-09-21T09:56:52.464Z,9
2022-09-21T09:59:24.949Z,7.7
2022-09-21T10:00:41.190Z,9.6
2022-09-21T10:01:57.421Z,9
2022-09-21T10:03:13.667Z,7.3
2022-09-21T10:04:29.909Z,7
2022-09-21T10:05:45.165Z,10.6
2022-09-21T10:07:01.404Z,8
2022-09-21T10:08:17.643Z,7.1
2022-09-21T10:09:33.889Z,7.5
2022-09-21T10:10:50.120Z,9.5
2022-09-21T10:12:06.359Z,8.5
2022-09-21T10:13:22.602Z,8.3
2022-09-21T10:14:38.835Z,8
2022-09-21T10:15:55.088Z,8.3
2022-09-21T10:17:11.322Z,7.4
2022-09-21T10:18:27.571Z,10.8
2022-09-21T10:19:43.796Z,8.4
2022-09-21T10:21:00.035Z,7.6
2022-09-21T10:22:15.297Z,8.9
2022-09-21T10:23:31.537Z,8.5
2022-09-21T10:24:47.777Z,7.8
2022-09-21T10:26:04.027Z,7.7
2022-09-21T10:27:20.261Z,7
2022-09-21T10:28:36.503Z,9.4
2022-09-21T10:29:52.746Z,7.9
2022-09-21T10:31:08.971Z,8.1
2022-09-21T10:32:25.208Z,7.8
2022-09-21T10:33:41.449Z,5.9
2022-09-21T10:34:57.700Z,7.8
2022-09-21T10:36:13.932Z,6.2
2022-09-21T10:37:30.188Z,7.4
2022-09-21T10:38:45.440Z,6.2
2022-09-21T10:40:01.682Z,7.8
2022-09-21T10:41:17.923Z,8.5
2022-09-21T10:42:34.145Z,7.9
2022-09-21T10:43:50.395Z,5.2
2022-09-21T10:45:06.632Z,6.3
2022-09-21T10:46:22.864Z,6.5
2022-09-21T10:47:39.116Z,6.3
2022-09-21T10:48:55.346Z,6.3
2022-09-21T10:50:11.589Z,5.2
2022-09-21T10:51:27.830Z,6.5
2022-09-21T10:52:44.073Z,4.7
2022-09-21T10:54:00.313Z,7.5
2022-09-21T10:55:15.563Z,8.1
2022-09-21T10:56:31.811Z,5.4
2022-09-21T10:57:48.058Z,5.2
2022-09-21T10:59:04.280Z,6.6
2022-09-21T11:00:20.536Z,5.1
2022-09-21T11:01:36.775Z,5.2
2022-09-21T11:02:53.002Z,5.3
2022-09-21T11:04:09.247Z,4.7
2022-09-21T11:05:25.481Z,7.2
2022-09-21T11:06:41.719Z,4.7
2022-09-21T11:07:57.963Z,4
2022-09-21T11:09:14.212Z,3.4
2022-09-21T11:10:30.439Z,4.2
2022-09-21T11:11:45.704Z,3.5
2022-09-21T11:13:01.941Z,4.7
2022-09-21T11:14:18.184Z,4.4
2022-09-21T11:15:34.418Z,4.9
2022-09-21T11:16:50.654Z,4.1
2022-09-21T11:18:06.899Z,4.4
2022-09-21T11:19:22.164Z,5.7
2022-09-21T11:20:38.397Z,3.7
2022-09-21T11:21:54.642Z,5.4
2022-09-21T11:23:10.882Z,6.2
2022-09-21T11:24:27.124Z,4.2
2022-09-21T11:25:43.354Z,5.3
2022-09-21T11:26:59.593Z,3.6
2022-09-21T11:28:15.832Z,5.4
2022-09-21T11:29:32.082Z,4.1
2022-09-21T11:30:48.329Z,4.8
2022-09-21T11:32:04.559Z,5.8
2022-09-21T11:33:20.795Z,5.8
2022-09-21T11:34:37.044Z,3.8
2022-09-21T11:35:52.302Z,5.9
2022-09-21T11:37:08.531Z,4.2
2022-09-21T11:38:24.767Z,6.2
2022-09-21T11:39:41.008Z,4.8
2022-09-21T11:40:57.268Z,4.9
2022-09-21T11:42:13.504Z,6.2
2022-09-21T11:43:29.740Z,4.4
2022-09-21T11:44:45.984Z,5.8
2022-09-21T11:46:02.208Z,4.9
2022-09-21T11:47:18.453Z,6.9
2022-09-21T11:48:34.706Z,2.9
2022-09-21T11:49:50.933Z,4.8
2022-09-21T11:51:07.186Z,3.2
2022-09-21T11:52:22.432Z,5
2022-09-21T11:53:38.681Z,6.1
2022-09-21T11:54:54.915Z,6
2022-09-21T11:56:11.156Z,4.5
2022-09-21T11:57:27.398Z,5.7
2022-09-21T11:58:43.636Z,4.3
2022-09-21T11:59:59.872Z,3.1
2022-09-21T12:01:16.105Z,4.1
2022-09-21T12:02:32.359Z,4.6
2022-09-21T12:03:48.594Z,4.1
2022-09-21T12:05:04.837Z,4.4
2022-09-21T12:06:21.074Z,4.3
2022-09-21T12:07:37.321Z,3.3
2022-09-21T12:08:52.579Z,3.6
2022-09-21T12:10:08.805Z,3.9
2022-09-21T12:11:25.041Z,5.3
2022-09-21T12:12:41.297Z,3.9
2022-09-21T12:13:57.542Z,4
2022-09-21T12:15:13.764Z,3.7
2022-09-21T12:16:30.007Z,5.9
2022-09-21T12:17:46.256Z,3.7
2022-09-21T12:19:02.500Z,3.9
2022-09-21T12:20:18.734Z,3.6
2022-09-21T12:21:34.980Z,4
2022-09-21T12:22:51.211Z,2.9
2022-09-21T12:24:07.459Z,3.9
2022-09-21T12:25:22.717Z,4.4
2022-09-21T12:26:38.940Z,5.6
2022-09-21T12:27:55.190Z,5.3
2022-09-21T12:29:11.430Z,4.1
2022-09-21T12:30:27.668Z,4.2
2022-09-21T12:31:43.916Z,4.1
2022-09-21T12:33:00.148Z,4.3
2022-09-21T12:34:16.396Z,5.8
2022-09-21T12:35:32.628Z,3.9
2022-09-21T12:36:48.871Z,4.2
2022-09-21T12:38:05.106Z,4
2022-09-21T12:39:21.357Z,4.6
2022-09-21T12:40:37.588Z,3.3
2022-09-21T12:41:52.837Z,5.5
2022-09-21T12:43:09.088Z,3.5
2022-09-21T12:44:25.323Z,3.8
2022-09-21T12:45:41.567Z,3.2
2022-09-21T12:46:57.813Z,4.8
2022-09-21T12:48:14.043Z,4.2
2022-09-21T12:49:30.276Z,3.3
2022-09-21T12:50:46.529Z,3.5
2022-09-21T12:52:02.766Z,3.4
2022-09-21T12:53:19.006Z,5.1
2022-09-21T12:54:35.241Z,4.1
2022-09-21T12:55:51.488Z,4
2022-09-21T12:57:07.741Z,4.5
2022-09-21T12:58:22.000Z,3.9
2022-09-21T12:59:39.227Z,3.7
2022-09-21T13:00:55.458Z,3.2
2022-09-21T13:02:11.693Z,4.2
2022-09-21T13:03:27.942Z,3
2022-09-21T13:04:44.183Z,4.1
2022-09-21T13:06:00.421Z,3.3
2022-09-21T13:07:16.664Z,4
2022-09-21T13:08:32.911Z,3.2
2022-09-21T13:09:49.150Z,3.6
2022-09-21T13:11:05.393Z,3.2
2022-09-21T13:12:21.621Z,4.1
2022-09-21T13:13:37.866Z,3.7
2022-09-21T13:14:53.123Z,3.7
2022-09-21T13:16:09.353Z,3.4
2022-09-21T13:17:25.597Z,3.8
2022-09-21T13:18:41.845Z,4.2
2022-09-21T13:19:58.084Z,4.6
2022-09-21T13:21:14.318Z,6
2022-09-21T13:22:30.564Z,4.5
2022-09-21T13:23:46.790Z,4.4
2022-09-21T13:25:03.051Z,5.1
2022-09-21T13:26:19.278Z,4.1
2022-09-21T13:27:35.525Z,5.2
2022-09-21T13:28:51.771Z,4.9
2022-09-21T13:30:07.994Z,3.3
2022-09-21T13:31:23.261Z,3.6
2022-09-21T13:32:39.506Z,3.6
2022-09-21T13:33:55.731Z,3.3
2022-09-21T13:35:11.987Z,2.5
2022-09-21T13:36:28.219Z,3.4
2022-09-21T13:37:44.469Z,4.1
2022-09-21T13:39:00.696Z,3.3
2022-09-21T13:40:16.940Z,2.6
2022-09-21T13:41:33.171Z,5.8
2022-09-21T13:42:49.424Z,3.3
2022-09-21T13:44:05.667Z,4.6
2022-09-21T13:45:21.896Z,2.5
2022-09-21T13:46:38.141Z,3.6
2022-09-21T13:47:53.385Z,3.7
2022-09-21T13:49:09.642Z,4.1
2022-09-21T13:50:25.883Z,3.5
2022-09-21T13:51:42.104Z,3.2
2022-09-21T13:52:58.347Z,3.4
2022-09-21T13:54:14.601Z,3.4
2022-09-21T13:55:30.836Z,3.5
2022-09-21T13:56:47.000Z,2.5
2022-09-21T13:58:03.314Z,3.3
2022-09-21T13:59:19.566Z,2.8
2022-09-21T14:00:35.799Z,4.3
2022-09-21T14:01:52.030Z,5.3
2022-09-21T14:03:08.276Z,2.9
2022-09-21T14:04:23.542Z,4.1
2022-09-21T14:05:39.778Z,3.8
2022-09-21T14:06:56.015Z,2.8
2022-09-21T14:08:12.245Z,4.2
2022-09-21T14:09:28.492Z,3.4
2022-09-21T14:10:44.725Z,3.7
2022-09-21T14:12:00.971Z,3.3
2022-09-21T14:13:17.223Z,3.3
2022-09-21T14:14:33.443Z,3.6
2022-09-21T14:15:49.702Z,3.8
2022-09-21T14:17:05.938Z,3.9
2022-09-21T14:18:22.166Z,4.2
2022-09-21T14:19:38.414Z,3.2
2022-09-21T14:20:53.669Z,3.3
2022-09-21T14:22:09.920Z,3
2022-09-21T14:23:26.140Z,4.9
2022-09-21T14:24:42.395Z,3.4
2022-09-21T14:25:58.627Z,3.2
2022-09-21T14:27:14.863Z,3.4
2022-09-21T14:28:31.107Z,3.8
2022-09-21T14:29:47.342Z,4.5
2022-09-21T14:31:03.592Z,4
2022-09-21T14:32:19.840Z,3.1
2022-09-21T14:33:36.060Z,3.3
2022-09-21T14:34:52.308Z,3.9
2022-09-21T14:36:08.549Z,2.9
2022-09-21T14:37:23.800Z,2.8
2022-09-21T14:38:40.055Z,3.5
2022-09-21T14:39:56.293Z,4.3
2022-09-21T14:41:12.533Z,3.5
2022-09-21T14:42:28.757Z,3.3
2022-09-21T14:43:45.002Z,2.8
2022-09-21T14:45:01.240Z,3.6
2022-09-21T14:46:17.494Z,2.6
2022-09-21T14:47:33.742Z,3.5
2022-09-21T14:48:49.977Z,3.3
2022-09-21T14:50:06.207Z,3.3
2022-09-21T14:51:22.445Z,3.1
2022-09-21T14:52:38.677Z,3.3
2022-09-21T14:53:53.934Z,3.2
2022-09-21T14:55:10.191Z,2.2
2022-09-21T14:56:26.433Z,3
2022-09-21T14:57:42.658Z,2.9
2022-09-21T14:58:58.894Z,3.6
2022-09-21T15:00:15.157Z,3.2
2022-09-21T15:01:31.381Z,3.1
2022-09-21T15:02:47.629Z,3
2022-09-21T15:04:03.863Z,3.7
2022-09-21T15:05:20.105Z,3
2022-09-21T15:06:36.336Z,3.6
2022-09-21T15:07:52.574Z,3.8
2022-09-21T15:09:08.829Z,3.2
2022-09-21T15:10:24.092Z,2.7
2022-09-21T15:11:40.318Z,2.6
2022-09-21T15:12:56.560Z,3.2
2022-09-21T15:14:12.790Z,3
2022-09-21T15:15:29.033Z,3.2
2022-09-21T15:16:45.271Z,4.4
2022-09-21T15:18:01.529Z,3.4
2022-09-21T15:19:17.768Z,4.6
2022-09-21T15:20:34.006Z,4.6
2022-09-21T15:21:50.254Z,4.7
2022-09-21T15:23:06.478Z,3.8
2022-09-21T15:24:22.720Z,3.7
2022-09-21T15:25:38.959Z,5.5
2022-09-21T15:26:54.220Z,3.8
2022-09-21T15:28:10.469Z,3.2
2022-09-21T15:29:26.687Z,5
2022-09-21T15:30:42.939Z,2.7
2022-09-21T15:31:59.170Z,3.4
2022-09-21T15:33:15.412Z,3.5
2022-09-21T15:34:30.669Z,3.9
2022-09-21T15:35:46.930Z,3.7
2022-09-21T15:37:03.157Z,4.4
2022-09-21T15:38:19.391Z,7.5
2022-09-21T15:39:35.631Z,4.9
2022-09-21T15:40:51.892Z,4.7
2022-09-21T15:42:08.127Z,3.4
2022-09-21T15:43:24.368Z,4.6
2022-09-21T15:44:40.590Z,4
2022-09-21T15:45:56.854Z,3.3
2022-09-21T15:47:13.073Z,3.3
2022-09-21T15:48:29.324Z,4.6
2022-09-21T15:49:45.563Z,4.2
2022-09-21T15:51:00.806Z,4
2022-09-21T15:52:17.075Z,4.4
2022-09-21T15:53:33.298Z,3.3
2022-09-21T15:54:49.553Z,3.7
2022-09-21T15:56:05.784Z,4.3
2022-09-21T15:57:22.019Z,4.8
2022-09-21T15:58:38.247Z,3.7
2022-09-21T15:59:54.487Z,3.5
2022-09-21T16:01:10.746Z,4.3
2022-09-21T16:02:26.976Z,4
2022-09-21T16:03:43.205Z,4.1
2022-09-21T16:04:59.464Z,2.9
2022-09-21T16:06:15.686Z,3.3
2022-09-21T16:07:30.959Z,3.5
2022-09-21T16:08:47.201Z,4.3
2022-09-21T16:10:03.426Z,7.3
2022-09-21T16:11:19.686Z,5.6
2022-09-21T16:12:35.921Z,5.3
2022-09-21T16:13:52.150Z,4.4
2022-09-21T16:15:08.402Z,4.9
2022-09-21T16:16:24.640Z,4.7
2022-09-21T16:17:40.881Z,6.1
2022-09-21T16:18:57.103Z,5.4
2022-09-21T16:20:13.346Z,5.5
2022-09-21T16:21:29.601Z,5.7
2022-09-21T16:22:45.827Z,9.5
2022-09-21T16:24:01.093Z,8.2
2022-09-21T16:25:17.334Z,6.7
2022-09-21T16:26:33.590Z,6.6
2022-09-21T16:27:49.801Z,5.9
2022-09-21T16:29:06.046Z,5.6
2022-09-21T16:30:22.300Z,5
2022-09-21T16:31:38.526Z,5.3
2022-09-21T16:32:54.762Z,5.6
2022-09-21T16:34:11.016Z,5.1
2022-09-21T16:35:27.251Z,4
2022-09-21T16:36:43.487Z,4.3
2022-09-21T16:37:59.729Z,3.5
2022-09-21T16:39:15.979Z,5.8
2022-09-21T16:40:31.237Z,5.3
2022-09-21T16:41:47.466Z,4.3
2022-09-21T16:43:03.711Z,4.8
2022-09-21T16:44:19.953Z,4.8
2022-09-21T16:45:36.189Z,7.6
2022-09-21T16:46:52.436Z,7.6
2022-09-21T16:48:08.661Z,6.9
2022-09-21T16:49:24.905Z,7.3
2022-09-21T16:50:41.157Z,8.7
2022-09-21T16:51:57.398Z,8.6
2022-09-21T16:53:13.625Z,8.4
2022-09-21T16:54:29.860Z,7
2022-09-21T16:55:46.105Z,8.4
2022-09-21T16:57:01.367Z,8
2022-09-21T16:58:17.607Z,6.6
2022-09-21T16:59:33.836Z,7.7
2022-09-21T17:00:50.078Z,9
2022-09-21T17:02:06.322Z,8.7
2022-09-21T17:03:22.570Z,7.3
2022-09-21T17:04:38.804Z,8.2
2022-09-21T17:05:55.040Z,8.7
2022-09-21T17:07:11.285Z,7.4
2022-09-21T17:08:27.523Z,7.8
2022-09-21T17:09:43.768Z,7.5
2022-09-21T17:10:59.996Z,8.6
2022-09-21T17:12:16.235Z,7
2022-09-21T17:13:31.501Z,6
2022-09-21T17:14:47.736Z,7.1
2022-09-21T17:16:03.983Z,6.1
2022-09-21T17:17:20.216Z,5.8
2022-09-21T17:18:36.463Z,6
2022-09-21T17:19:52.700Z,6.2
2022-09-21T17:21:08.932Z,5.9
2022-09-21T17:22:25.172Z,5.6
2022-09-21T17:23:41.432Z,5.3
2022-09-21T17:24:57.662Z,5.5
2022-09-21T17:26:13.910Z,5.4
2022-09-21T17:27:30.140Z,6.4
2022-09-21T17:28:46.383Z,5.8
2022-09-21T17:30:01.649Z,7.1